Time;durP1;ratioP1;P1;durP2;ratioP2;P2;SDS_P1;SDS_P2;PMS_P1;PMS_P2;Temp;Humidity;BMP_temperature;BMP_pressure;BME280_temperature;BME280_humidity;BME280_pressure;Samples;Min_cycle;Max_cycle;Signal;HPM_P1;HPM_P2
2023/03/11 00:01:02;;;;;;;1.70;1.60;;;;;;;;;;5089035;28;20606;-55
2023/03/11 00:03:28;;;;;;;1.93;1.63;;;;;;;;;;5088312;28;20188;-55
2023/03/11 00:05:55;;;;;;;2.60;1.60;;;;;;;;;;5083823;28;20190;-55
2023/03/11 00:08:22;;;;;;;4.67;1.53;;;;;;;;;;5085883;28;20176;-55
2023/03/11 00:10:51;;;;;;;3.73;1.90;;;;;;;;;;5088551;28;20212;-55
2023/03/11 00:13:17;;;;;;;1.63;1.53;;;;;;;;;;5078874;28;20190;-55
2023/03/11 00:15:45;;;;;;;1.97;1.53;;;;;;;;;;5081975;28;20727;-55
2023/03/11 00:18:11;;;;;;;1.40;1.30;;;;;;;;;;5084125;28;20231;-56
2023/03/11 00:20:39;;;;;;;2.57;1.63;;;;;;;;;;5084792;28;20179;-55
2023/03/11 00:23:06;;;;;;;2.17;1.60;;;;;;;;;;5084994;28;20182;-57
2023/03/11 00:25:33;;;;;;;3.13;1.73;;;;;;;;;;5082994;28;20187;-55
2023/03/11 00:27:59;;;;;;;3.37;1.77;;;;;;;;;;5080274;28;20190;-55
2023/03/11 00:30:26;;;;;;;2.03;1.43;;;;;;;;;;5085131;28;20641;-56
2023/03/11 00:32:53;;;;;;;2.90;1.90;;;;;;;;;;5086078;28;20704;-55
2023/03/11 00:35:20;;;;;;;1.63;1.40;;;;;;;;;;5075888;28;20686;-55
2023/03/11 00:37:47;;;;;;;2.37;1.47;;;;;;;;;;5087205;28;20175;-55
2023/03/11 00:40:15;;;;;;;1.90;1.40;;;;;;;;;;5087283;28;20192;-55
2023/03/11 00:42:41;;;;;;;2.33;1.90;;;;;;;;;;5086386;28;20168;-55
2023/03/11 00:45:07;;;;;;;6.97;2.00;;;;;;;;;;5073231;28;20180;-55
2023/03/11 00:47:33;;;;;;;2.67;1.50;;;;;;;;;;5087139;28;20195;-56
2023/03/11 00:49:59;;;;;;;6.77;2.23;;;;;;;;;;5078228;28;20188;-55
2023/03/11 00:52:25;;;;;;;5.47;1.73;;;;;;;;;;5089546;28;20180;-57
2023/03/11 00:54:51;;;;;;;2.73;1.60;;;;;;;;;;5083084;28;20200;-58
2023/03/11 00:57:17;;;;;;;3.60;2.00;;;;;;;;;;5088168;28;20394;-55
2023/03/11 00:59:43;;;;;;;2.50;1.87;;;;;;;;;;5087824;28;20535;-56
2023/03/11 01:02:09;;;;;;;4.73;2.13;;;;;;;;;;5087004;28;20539;-55
2023/03/11 01:04:35;;;;;;;3.90;2.13;;;;;;;;;;5079161;28;20188;-55
2023/03/11 01:07:01;;;;;;;1.50;1.40;;;;;;;;;;5084220;28;20176;-55
2023/03/11 01:09:27;;;;;;;2.00;1.80;;;;;;;;;;5079100;28;20476;-55
2023/03/11 01:11:53;;;;;;;2.10;1.53;;;;;;;;;;5083606;28;20219;-56
2023/03/11 01:14:20;;;;;;;3.10;1.60;;;;;;;;;;5078857;28;20232;-55
2023/03/11 01:16:46;;;;;;;3.90;2.20;;;;;;;;;;5075939;28;20719;-58
2023/03/11 01:19:12;;;;;;;2.67;1.40;;;;;;;;;;5084881;28;20179;-56
2023/03/11 01:21:38;;;;;;;3.27;1.93;;;;;;;;;;5082415;28;20279;-55
2023/03/11 01:24:04;;;;;;;3.10;1.63;;;;;;;;;;5084233;28;20191;-57
2023/03/11 01:26:30;;;;;;;2.47;1.37;;;;;;;;;;5078015;28;20635;-55
2023/03/11 01:28:56;;;;;;;3.03;1.50;;;;;;;;;;5085355;28;20188;-55
2023/03/11 01:31:22;;;;;;;2.43;1.60;;;;;;;;;;5077441;28;20227;-55
2023/03/11 01:33:48;;;;;;;2.27;1.60;;;;;;;;;;5086784;28;20763;-55
2023/03/11 01:36:14;;;;;;;2.90;1.80;;;;;;;;;;5087299;28;20658;-55
2023/03/11 01:38:40;;;;;;;1.43;1.33;;;;;;;;;;5075934;28;20183;-55
2023/03/11 01:41:10;;;;;;;2.83;1.50;;;;;;;;;;5086148;28;20641;-56
2023/03/11 01:43:40;;;;;;;1.67;1.33;;;;;;;;;;5086362;28;21036;-55
2023/03/11 01:46:09;;;;;;;1.20;1.10;;;;;;;;;;5083276;28;20180;-55
2023/03/11 01:48:37;;;;;;;1.40;1.30;;;;;;;;;;5076448;28;20185;-55
2023/03/11 01:51:04;;;;;;;1.40;1.30;;;;;;;;;;5084916;28;20811;-55
2023/03/11 01:53:30;;;;;;;2.03;1.83;;;;;;;;;;5086347;28;20200;-55
2023/03/11 01:55:56;;;;;;;2.23;1.50;;;;;;;;;;5087329;28;20195;-55
2023/03/11 01:58:27;;;;;;;3.40;1.60;;;;;;;;;;5082210;28;20564;-55
2023/03/11 02:00:54;;;;;;;1.97;1.47;;;;;;;;;;5083871;28;20180;-55
2023/03/11 02:03:26;;;;;;;2.50;1.50;;;;;;;;;;5085714;28;20711;-55
2023/03/11 02:05:53;;;;;;;2.23;1.47;;;;;;;;;;5081977;28;20183;-55
2023/03/11 02:08:19;;;;;;;2.60;1.73;;;;;;;;;;5080686;28;20210;-55
2023/03/11 02:10:45;;;;;;;3.30;1.50;;;;;;;;;;5066130;28;20294;-55
2023/03/11 02:13:11;;;;;;;1.50;1.27;;;;;;;;;;5086581;28;20183;-55
2023/03/11 02:15:37;;;;;;;1.60;1.50;;;;;;;;;;5086236;28;20263;-55
2023/03/11 02:18:05;;;;;;;1.67;1.40;;;;;;;;;;5078514;28;20249;-55
2023/03/11 02:20:42;;;;;;;1.87;1.47;;;;;;;;;;5085862;28;20244;-56
2023/03/11 02:23:08;;;;;;;1.70;1.60;;;;;;;;;;5082609;28;20199;-55
2023/03/11 02:25:48;;;;;;;2.27;1.10;;;;;;;;;;5074632;28;20176;-55
2023/03/11 02:28:15;;;;;;;3.07;1.73;;;;;;;;;;5074984;28;20191;-56
2023/03/11 02:30:42;;;;;;;1.77;1.43;;;;;;;;;;5077693;28;20584;-55
2023/03/11 02:33:09;;;;;;;3.50;1.77;;;;;;;;;;5079638;28;20690;-56
2023/03/11 02:35:35;;;;;;;7.13;2.10;;;;;;;;;;5084665;28;20200;-55
2023/03/11 02:38:01;;;;;;;2.33;1.47;;;;;;;;;;5084446;28;20273;-55
2023/03/11 02:40:29;;;;;;;2.50;1.77;;;;;;;;;;5065262;28;20190;-55
2023/03/11 02:43:03;;;;;;;2.00;1.40;;;;;;;;;;5084627;28;20193;-55
2023/03/11 02:45:30;;;;;;;2.33;1.50;;;;;;;;;;5083907;28;20655;-55
2023/03/11 02:47:58;;;;;;;5.07;2.10;;;;;;;;;;5073748;28;20186;-55
2023/03/11 02:50:25;;;;;;;2.57;1.40;;;;;;;;;;5073082;28;20184;-55
2023/03/11 02:52:51;;;;;;;3.07;1.77;;;;;;;;;;5078375;28;20283;-55
2023/03/11 02:55:19;;;;;;;2.20;1.60;;;;;;;;;;5078725;28;20192;-55
2023/03/11 02:57:46;;;;;;;4.17;1.50;;;;;;;;;;5084823;28;20194;-55
2023/03/11 03:00:14;;;;;;;1.73;1.23;;;;;;;;;;5074481;28;20171;-55
2023/03/11 03:02:41;;;;;;;1.60;1.20;;;;;;;;;;5085857;28;20671;-55
2023/03/11 03:05:07;;;;;;;5.17;1.87;;;;;;;;;;5084380;28;20591;-55
2023/03/11 03:07:33;;;;;;;1.50;1.40;;;;;;;;;;5081884;28;20176;-55
2023/03/11 03:09:59;;;;;;;3.27;1.60;;;;;;;;;;5080227;28;20203;-55
2023/03/11 03:12:25;;;;;;;3.10;1.70;;;;;;;;;;5086737;28;20199;-55
2023/03/11 03:14:51;;;;;;;2.07;1.30;;;;;;;;;;5081541;28;20200;-55
2023/03/11 03:17:17;;;;;;;3.43;1.40;;;;;;;;;;5079281;28;20180;-56
2023/03/11 03:19:43;;;;;;;2.60;1.37;;;;;;;;;;5085515;28;20642;-55
2023/03/11 03:22:09;;;;;;;1.90;1.63;;;;;;;;;;5084503;28;20215;-55
2023/03/11 03:24:36;;;;;;;3.30;2.00;;;;;;;;;;5085377;28;20180;-55
2023/03/11 03:27:02;;;;;;;1.93;1.60;;;;;;;;;;5079572;28;20491;-55
2023/03/11 03:29:28;;;;;;;5.57;1.70;;;;;;;;;;5084774;28;20269;-55
2023/03/11 03:31:54;;;;;;;2.50;1.50;;;;;;;;;;4737088;28;20222;-56
2023/03/11 03:34:20;;;;;;;3.13;1.80;;;;;;;;;;5080780;28;20659;-57
2023/03/11 03:36:46;;;;;;;1.57;1.43;;;;;;;;;;5082670;28;20515;-55
2023/03/11 03:39:12;;;;;;;3.73;1.73;;;;;;;;;;5085516;28;20176;-56
2023/03/11 03:41:38;;;;;;;1.60;1.47;;;;;;;;;;5085686;28;20230;-55
2023/03/11 03:44:04;;;;;;;2.83;1.50;;;;;;;;;;5088500;28;20312;-55
2023/03/11 03:46:30;;;;;;;1.33;1.20;;;;;;;;;;5088493;28;20236;-55
2023/03/11 03:48:56;;;;;;;5.13;2.37;;;;;;;;;;5085864;28;20597;-55
2023/03/11 03:51:22;;;;;;;3.43;1.57;;;;;;;;;;5076326;28;20176;-55
2023/03/11 03:53:48;;;;;;;2.60;1.83;;;;;;;;;;5083415;28;20522;-55
2023/03/11 03:56:16;;;;;;;2.03;1.47;;;;;;;;;;5079879;28;20634;-55
2023/03/11 03:58:42;;;;;;;2.90;1.83;;;;;;;;;;5082271;28;20179;-55
2023/03/11 04:01:08;;;;;;;3.93;2.13;;;;;;;;;;5087371;28;20237;-55
2023/03/11 04:03:35;;;;;;;3.30;1.50;;;;;;;;;;5089046;28;20220;-56
2023/03/11 04:06:14;;;;;;;2.70;1.50;;;;;;;;;;5088006;28;20190;-55
2023/03/11 04:08:41;;;;;;;5.67;1.60;;;;;;;;;;5087925;28;20199;-56
2023/03/11 04:11:07;;;;;;;3.17;1.80;;;;;;;;;;5087313;28;20662;-57
2023/03/11 04:13:33;;;;;;;2.37;1.50;;;;;;;;;;5083367;28;20172;-60
2023/03/11 04:15:59;;;;;;;2.07;1.30;;;;;;;;;;5088211;28;20696;-55
2023/03/11 04:18:25;;;;;;;2.10;1.90;;;;;;;;;;5087081;28;20182;-55
2023/03/11 04:20:51;;;;;;;4.67;2.17;;;;;;;;;;5083245;28;20172;-55
2023/03/11 04:23:17;;;;;;;4.03;1.83;;;;;;;;;;5089202;28;20187;-56
2023/03/11 04:25:43;;;;;;;2.03;1.70;;;;;;;;;;5087997;28;20180;-55
2023/03/11 04:28:09;;;;;;;1.97;1.50;;;;;;;;;;5087485;28;20187;-55
2023/03/11 04:30:35;;;;;;;2.30;1.50;;;;;;;;;;5083665;28;20707;-55
2023/03/11 04:33:02;;;;;;;4.30;1.40;;;;;;;;;;5089144;28;20234;-55
2023/03/11 04:35:28;;;;;;;2.33;1.57;;;;;;;;;;5086812;28;20203;-56
2023/03/11 04:37:54;;;;;;;1.80;1.40;;;;;;;;;;5085640;28;20341;-55
2023/03/11 04:40:20;;;;;;;3.87;2.43;;;;;;;;;;5087070;28;20766;-55
2023/03/11 04:42:46;;;;;;;2.37;1.50;;;;;;;;;;5078791;28;20175;-55
2023/03/11 04:45:12;;;;;;;3.93;1.60;;;;;;;;;;5087942;28;20186;-55
2023/03/11 04:47:38;;;;;;;3.57;1.60;;;;;;;;;;5084229;28;20188;-55
2023/03/11 04:50:05;;;;;;;2.97;1.83;;;;;;;;;;5078527;28;20192;-55
2023/03/11 04:52:31;;;;;;;1.50;1.20;;;;;;;;;;5089332;28;20663;-55
2023/03/11 04:54:57;;;;;;;1.60;1.30;;;;;;;;;;5088717;28;20195;-55
2023/03/11 04:57:23;;;;;;;1.50;1.40;;;;;;;;;;5086613;28;20198;-55
2023/03/11 04:59:49;;;;;;;4.67;1.80;;;;;;;;;;5081323;28;20322;-55
2023/03/11 05:02:15;;;;;;;2.90;2.60;;;;;;;;;;5082922;28;20555;-55
2023/03/11 05:04:41;;;;;;;2.90;1.73;;;;;;;;;;5078323;28;20189;-56
2023/03/11 05:07:07;;;;;;;2.73;2.03;;;;;;;;;;5077934;28;20172;-56
2023/03/11 05:09:35;;;;;;;2.17;1.40;;;;;;;;;;5079475;28;20179;-55
2023/03/11 05:12:01;;;;;;;3.03;2.10;;;;;;;;;;5083583;28;20291;-55
2023/03/11 05:14:27;;;;;;;1.60;1.50;;;;;;;;;;5086374;28;20231;-55
2023/03/11 05:16:53;;;;;;;3.50;1.60;;;;;;;;;;5085790;28;20373;-55
2023/03/11 05:19:32;;;;;;;2.10;1.50;;;;;;;;;;5082298;28;20183;-55
2023/03/11 05:21:58;;;;;;;1.80;1.70;;;;;;;;;;5076844;28;20177;-54
2023/03/11 05:24:25;;;;;;;1.97;1.67;;;;;;;;;;5080820;28;20236;-55
2023/03/11 05:26:51;;;;;;;2.67;2.03;;;;;;;;;;5087633;28;20293;-55
2023/03/11 05:29:17;;;;;;;2.27;1.90;;;;;;;;;;5077996;28;20182;-55
2023/03/11 05:31:43;;;;;;;2.37;1.67;;;;;;;;;;5080269;28;20180;-54
2023/03/11 05:34:09;;;;;;;4.03;1.30;;;;;;;;;;5085483;28;20295;-55
2023/03/11 05:36:35;;;;;;;1.50;1.30;;;;;;;;;;5086280;28;20263;-55
2023/03/11 05:39:01;;;;;;;1.50;1.40;;;;;;;;;;5083315;28;20269;-55
2023/03/11 05:41:27;;;;;;;2.93;1.50;;;;;;;;;;5086488;28;20262;-55
2023/03/11 05:43:53;;;;;;;1.60;1.17;;;;;;;;;;5080499;28;20179;-55
2023/03/11 05:46:19;;;;;;;2.83;2.63;;;;;;;;;;5062852;28;20191;-55
2023/03/11 05:48:46;;;;;;;2.13;1.90;;;;;;;;;;5084227;28;20180;-55
2023/03/11 05:51:12;;;;;;;2.50;1.53;;;;;;;;;;5086445;28;20643;-55
2023/03/11 05:53:41;;;;;;;3.13;1.50;;;;;;;;;;5074174;28;20243;-55
2023/03/11 05:56:07;;;;;;;1.47;1.20;;;;;;;;;;5078868;28;20175;-55
2023/03/11 05:58:33;;;;;;;1.47;1.30;;;;;;;;;;5080270;28;20168;-55
2023/03/11 06:00:59;;;;;;;2.17;1.97;;;;;;;;;;5079808;28;20176;-54
2023/03/11 06:03:25;;;;;;;3.23;1.60;;;;;;;;;;5082906;28;20722;-55
2023/03/11 06:05:52;;;;;;;1.80;1.53;;;;;;;;;;5079341;28;20222;-55
2023/03/11 06:08:19;;;;;;;1.67;1.30;;;;;;;;;;5078253;28;20533;-55
2023/03/11 06:10:45;;;;;;;2.93;1.50;;;;;;;;;;5082822;28;20196;-55
2023/03/11 06:13:11;;;;;;;2.17;1.60;;;;;;;;;;5083015;28;20168;-55
2023/03/11 06:15:38;;;;;;;1.80;1.33;;;;;;;;;;5075491;28;20493;-55
2023/03/11 06:18:04;;;;;;;2.10;1.60;;;;;;;;;;5084159;28;20164;-55
2023/03/11 06:20:30;;;;;;;2.03;1.60;;;;;;;;;;5080982;28;20236;-55
2023/03/11 06:22:56;;;;;;;3.07;1.63;;;;;;;;;;5085438;28;20186;-55
2023/03/11 06:25:23;;;;;;;1.63;1.30;;;;;;;;;;5082724;28;20179;-55
2023/03/11 06:27:50;;;;;;;1.40;1.30;;;;;;;;;;5083456;28;20183;-55
2023/03/11 06:30:16;;;;;;;2.37;1.40;;;;;;;;;;5081079;28;20233;-55
2023/03/11 06:32:43;;;;;;;2.63;1.50;;;;;;;;;;5085644;28;20246;-55
2023/03/11 06:35:10;;;;;;;3.53;1.40;;;;;;;;;;5083519;28;20203;-55
2023/03/11 06:37:36;;;;;;;1.37;1.10;;;;;;;;;;5083178;28;20203;-55
2023/03/11 06:40:04;;;;;;;1.90;1.50;;;;;;;;;;5080576;28;20234;-55
2023/03/11 06:42:30;;;;;;;1.47;1.37;;;;;;;;;;5078740;28;20221;-55
2023/03/11 06:44:56;;;;;;;1.97;1.43;;;;;;;;;;5074988;28;20179;-54
2023/03/11 06:47:22;;;;;;;2.97;1.57;;;;;;;;;;5079292;28;20628;-55
2023/03/11 06:49:50;;;;;;;1.90;1.33;;;;;;;;;;5070895;28;20188;-55
2023/03/11 06:52:16;;;;;;;2.40;1.30;;;;;;;;;;5086277;28;20191;-55
2023/03/11 06:54:42;;;;;;;2.87;1.60;;;;;;;;;;5085884;28;20603;-55
2023/03/11 06:57:09;;;;;;;1.90;1.80;;;;;;;;;;5079041;28;20266;-55
2023/03/11 06:59:35;;;;;;;2.50;1.70;;;;;;;;;;5076807;28;20231;-55
2023/03/11 07:02:02;;;;;;;3.87;1.80;;;;;;;;;;5082643;28;20186;-55
2023/03/11 07:04:28;;;;;;;2.03;1.53;;;;;;;;;;5081045;28;20569;-57
2023/03/11 07:06:55;;;;;;;2.60;1.17;;;;;;;;;;5084629;28;20615;-54
2023/03/11 07:09:23;;;;;;;1.83;1.47;;;;;;;;;;5083597;28;20184;-54
2023/03/11 07:11:49;;;;;;;3.10;1.80;;;;;;;;;;5083910;28;20879;-55
2023/03/11 07:14:16;;;;;;;2.60;1.67;;;;;;;;;;5082192;28;20264;-55
2023/03/11 07:16:42;;;;;;;1.80;1.37;;;;;;;;;;5085955;28;20176;-55
2023/03/11 07:19:08;;;;;;;3.90;1.83;;;;;;;;;;5084290;28;20266;-58
2023/03/11 07:21:35;;;;;;;2.67;1.77;;;;;;;;;;5087713;28;20620;-55
2023/03/11 07:24:02;;;;;;;1.97;1.83;;;;;;;;;;5090409;28;20184;-55
2023/03/11 07:26:29;;;;;;;2.63;1.70;;;;;;;;;;5088882;28;20187;-55
2023/03/11 07:28:55;;;;;;;1.53;1.43;;;;;;;;;;5082630;28;20191;-55
2023/03/11 07:31:25;;;;;;;3.33;1.93;;;;;;;;;;5082499;28;20184;-55
2023/03/11 07:33:52;;;;;;;2.97;1.80;;;;;;;;;;5082974;28;20200;-55
2023/03/11 07:36:19;;;;;;;2.70;1.47;;;;;;;;;;5098798;28;20164;-55
2023/03/11 07:38:45;;;;;;;4.60;1.53;;;;;;;;;;5091178;28;20251;-55
2023/03/11 07:41:12;;;;;;;1.60;1.50;;;;;;;;;;5083251;28;20175;-55
2023/03/11 07:43:38;;;;;;;2.83;1.40;;;;;;;;;;5085911;28;20172;-60
2023/03/11 07:46:09;;;;;;;1.83;1.53;;;;;;;;;;5080319;28;20639;-55
2023/03/11 07:48:36;;;;;;;2.90;1.83;;;;;;;;;;5081374;28;20602;-55
2023/03/11 07:51:03;;;;;;;1.80;1.40;;;;;;;;;;5088770;28;20182;-54
2023/03/11 07:53:29;;;;;;;2.43;1.70;;;;;;;;;;5090030;28;20172;-55
2023/03/11 07:55:58;;;;;;;3.50;2.00;;;;;;;;;;5077410;28;20217;-55
2023/03/11 07:58:25;;;;;;;2.87;1.70;;;;;;;;;;5087933;28;20183;-55
2023/03/11 08:00:51;;;;;;;1.67;1.53;;;;;;;;;;5083005;28;20587;-55
2023/03/11 08:03:18;;;;;;;1.97;1.60;;;;;;;;;;5081202;28;20179;-55
2023/03/11 08:05:44;;;;;;;3.67;1.77;;;;;;;;;;5084161;28;20557;-55
2023/03/11 08:08:10;;;;;;;2.93;2.17;;;;;;;;;;5090166;28;20180;-55
2023/03/11 08:10:36;;;;;;;1.67;1.57;;;;;;;;;;5080969;28;20195;-55
2023/03/11 08:13:02;;;;;;;1.93;1.73;;;;;;;;;;5085177;28;20183;-55
2023/03/11 08:15:29;;;;;;;1.97;1.60;;;;;;;;;;5086393;28;20192;-55
2023/03/11 08:17:55;;;;;;;4.03;1.90;;;;;;;;;;5089122;28;20180;-55
2023/03/11 08:20:21;;;;;;;2.63;1.30;;;;;;;;;;5088565;28;20176;-55
2023/03/11 08:22:47;;;;;;;4.60;2.10;;;;;;;;;;5082617;28;20202;-55
2023/03/11 08:25:13;;;;;;;2.30;1.57;;;;;;;;;;5088109;28;20219;-55
2023/03/11 08:27:40;;;;;;;3.37;2.17;;;;;;;;;;5082503;28;20179;-55
2023/03/11 08:30:07;;;;;;;1.97;1.50;;;;;;;;;;5084834;28;20675;-55
2023/03/11 08:32:33;;;;;;;2.20;2.00;;;;;;;;;;5085694;28;20349;-55
2023/03/11 08:34:59;;;;;;;2.13;1.53;;;;;;;;;;5087092;28;20306;-55
2023/03/11 08:37:25;;;;;;;3.60;1.70;;;;;;;;;;5089145;28;20175;-55
2023/03/11 08:39:51;;;;;;;3.23;1.70;;;;;;;;;;5083477;28;20183;-55
2023/03/11 08:42:18;;;;;;;4.20;1.67;;;;;;;;;;5086189;28;20191;-55
2023/03/11 08:44:44;;;;;;;4.80;2.03;;;;;;;;;;5079277;28;20245;-55
2023/03/11 08:47:10;;;;;;;1.93;1.73;;;;;;;;;;5082690;28;20214;-55
2023/03/11 08:49:37;;;;;;;4.63;1.77;;;;;;;;;;5087708;28;20179;-55
2023/03/11 08:52:04;;;;;;;2.70;1.93;;;;;;;;;;5087964;28;20306;-55
2023/03/11 08:54:30;;;;;;;3.87;1.90;;;;;;;;;;5085634;28;20215;-55
2023/03/11 08:56:57;;;;;;;1.70;1.40;;;;;;;;;;5085002;28;20182;-55
2023/03/11 08:59:23;;;;;;;2.57;2.00;;;;;;;;;;5083361;28;20174;-55
2023/03/11 09:01:49;;;;;;;5.83;2.53;;;;;;;;;;5085736;28;20175;-55
2023/03/11 09:04:15;;;;;;;6.73;2.30;;;;;;;;;;5078579;28;20180;-59
2023/03/11 09:06:45;;;;;;;6.30;2.50;;;;;;;;;;5082866;28;20200;-54
2023/03/11 09:09:11;;;;;;;4.27;2.50;;;;;;;;;;5084384;28;20350;-55
2023/03/11 09:11:38;;;;;;;11.60;3.43;;;;;;;;;;5084933;28;20679;-55
2023/03/11 09:14:04;;;;;;;9.23;3.03;;;;;;;;;;5074930;28;20485;-55
2023/03/11 09:16:30;;;;;;;3.13;2.63;;;;;;;;;;5079242;28;20229;-55
2023/03/11 09:18:59;;;;;;;7.00;2.87;;;;;;;;;;5080881;28;20307;-55
2023/03/11 09:21:25;;;;;;;7.07;2.90;;;;;;;;;;5081262;28;20725;-55
2023/03/11 09:23:51;;;;;;;9.03;2.50;;;;;;;;;;5085104;28;20172;-55
2023/03/11 09:26:17;;;;;;;4.47;2.30;;;;;;;;;;5081124;28;20314;-55
2023/03/11 09:28:47;;;;;;;11.00;2.90;;;;;;;;;;5086731;28;20591;-55
2023/03/11 09:31:14;;;;;;;5.90;2.47;;;;;;;;;;5080664;28;20168;-56
2023/03/11 09:33:41;;;;;;;7.67;2.80;;;;;;;;;;5057741;28;20248;-55
2023/03/11 09:36:08;;;;;;;7.87;2.40;;;;;;;;;;5053155;28;20188;-55
2023/03/11 09:38:34;;;;;;;5.90;2.60;;;;;;;;;;5060339;28;20177;-55
2023/03/11 09:41:15;;;;;;;6.23;2.43;;;;;;;;;;5061412;28;20180;-55
2023/03/11 09:43:47;;;;;;;6.47;3.20;;;;;;;;;;5062753;28;20211;-55
2023/03/11 09:46:28;;;;;;;5.70;2.03;;;;;;;;;;5058627;28;20501;-55
2023/03/11 09:49:13;;;;;;;4.67;2.67;;;;;;;;;;5052425;28;20450;-54
2023/03/11 09:51:45;;;;;;;6.37;2.60;;;;;;;;;;5059635;28;20234;-54
2023/03/11 09:54:12;;;;;;;6.90;2.67;;;;;;;;;;5065816;28;20569;-55
2023/03/11 09:56:40;;;;;;;5.87;3.30;;;;;;;;;;5059611;28;20177;-55
2023/03/11 09:59:08;;;;;;;6.33;3.00;;;;;;;;;;5062981;28;20636;-55
2023/03/11 10:01:36;;;;;;;3.90;2.67;;;;;;;;;;5056621;28;20409;-55
2023/03/11 10:04:21;;;;;;;5.37;2.80;;;;;;;;;;5054052;28;20376;-55
2023/03/11 10:06:47;;;;;;;7.17;2.60;;;;;;;;;;5056841;28;20176;-55
2023/03/11 10:09:13;;;;;;;5.00;2.60;;;;;;;;;;5062490;28;20620;-55
2023/03/11 10:11:43;;;;;;;5.77;2.20;;;;;;;;;;5058976;28;20216;-55
2023/03/11 10:14:12;;;;;;;3.70;2.20;;;;;;;;;;5054154;28;20594;-55
2023/03/11 10:16:46;;;;;;;4.00;2.50;;;;;;;;;;5052695;28;20272;-56
2023/03/11 10:19:29;;;;;;;4.10;2.57;;;;;;;;;;5056284;28;20548;-55
2023/03/11 10:22:01;;;;;;;6.67;2.80;;;;;;;;;;5058941;28;20217;-55
2023/03/11 10:24:48;;;;;;;3.20;2.37;;;;;;;;;;5064634;28;20282;-56
2023/03/11 10:27:16;;;;;;;3.03;2.63;;;;;;;;;;5034171;28;20606;-55
2023/03/11 10:29:56;;;;;;;4.43;2.30;;;;;;;;;;5057900;28;20417;-56
2023/03/11 10:32:28;;;;;;;4.53;2.43;;;;;;;;;;5065034;28;20299;-55
2023/03/11 10:34:58;;;;;;;2.67;2.33;;;;;;;;;;5076841;28;20585;-56
2023/03/11 10:37:26;;;;;;;3.53;2.27;;;;;;;;;;5077579;28;20578;-56
2023/03/11 10:39:52;;;;;;;4.80;2.23;;;;;;;;;;5080829;28;20182;-56
2023/03/11 10:42:21;;;;;;;3.83;2.97;;;;;;;;;;5076257;28;20796;-56
2023/03/11 10:44:47;;;;;;;3.73;2.70;;;;;;;;;;5079059;28;20209;-56
2023/03/11 10:47:18;;;;;;;2.87;2.50;;;;;;;;;;5080432;28;20274;-56
2023/03/11 10:49:44;;;;;;;11.63;2.40;;;;;;;;;;5089348;28;20198;-56
2023/03/11 10:52:10;;;;;;;3.13;2.00;;;;;;;;;;5091733;28;20544;-56
2023/03/11 10:54:38;;;;;;;3.00;2.17;;;;;;;;;;5086305;28;20238;-56
2023/03/11 10:57:06;;;;;;;2.23;2.03;;;;;;;;;;5093550;28;20602;-56
2023/03/11 10:59:33;;;;;;;2.60;1.90;;;;;;;;;;5089358;28;20537;-56
2023/03/11 11:02:00;;;;;;;2.67;1.97;;;;;;;;;;5089140;28;20243;-56
2023/03/11 11:04:36;;;;;;;4.30;2.20;;;;;;;;;;5091909;28;20222;-56
2023/03/11 11:07:21;;;;;;;7.47;2.97;;;;;;;;;;5085005;28;20258;-56
2023/03/11 11:09:48;;;;;;;3.57;2.50;;;;;;;;;;5081631;28;20639;-56
2023/03/11 11:12:17;;;;;;;5.73;3.17;;;;;;;;;;5088621;28;20612;-57
2023/03/11 11:14:48;;;;;;;3.00;1.87;;;;;;;;;;5087198;28;20203;-56
2023/03/11 11:17:26;;;;;;;3.30;2.20;;;;;;;;;;5090847;28;20200;-56
2023/03/11 11:19:53;;;;;;;6.37;2.20;;;;;;;;;;5088959;28;20202;-56
2023/03/11 11:22:20;;;;;;;2.53;2.00;;;;;;;;;;5089021;28;20267;-56
2023/03/11 11:24:49;;;;;;;3.27;1.80;;;;;;;;;;5084719;28;20194;-56
2023/03/11 11:27:17;;;;;;;5.50;2.50;;;;;;;;;;5096272;28;20594;-56
2023/03/11 11:29:43;;;;;;;4.30;2.83;;;;;;;;;;5086386;28;20266;-55
2023/03/11 11:32:16;;;;;;;6.60;2.77;;;;;;;;;;5075510;28;20255;-55
2023/03/11 11:34:42;;;;;;;4.13;2.30;;;;;;;;;;5062403;28;20624;-55
2023/03/11 11:37:13;;;;;;;5.27;3.43;;;;;;;;;;5064861;28;20192;-55
2023/03/11 11:39:50;;;;;;;6.13;2.23;;;;;;;;;;5057183;28;20184;-55
2023/03/11 11:42:16;;;;;;;2.10;1.90;;;;;;;;;;5069592;28;20177;-55
2023/03/11 11:44:42;;;;;;;4.20;2.13;;;;;;;;;;5064674;28;20178;-55
2023/03/11 11:47:11;;;;;;;5.50;2.63;;;;;;;;;;5063613;28;20272;-55
2023/03/11 11:49:43;;;;;;;6.67;2.47;;;;;;;;;;5059925;28;20258;-55
2023/03/11 11:52:15;;;;;;;3.57;2.20;;;;;;;;;;5068979;28;20192;-55
2023/03/11 11:54:44;;;;;;;4.23;2.20;;;;;;;;;;5058657;28;20200;-55
2023/03/11 11:57:11;;;;;;;4.20;2.10;;;;;;;;;;5063490;28;20206;-55
2023/03/11 11:59:37;;;;;;;4.40;2.27;;;;;;;;;;5059795;28;20192;-55
2023/03/11 12:02:07;;;;;;;3.17;1.87;;;;;;;;;;5062031;28;20188;-55
2023/03/11 12:04:45;;;;;;;4.33;2.27;;;;;;;;;;5056872;28;20177;-55
2023/03/11 12:07:41;;;;;;;3.33;2.00;;;;;;;;;;5060723;28;20579;-55
2023/03/11 12:10:10;;;;;;;2.67;1.83;;;;;;;;;;4981132;28;20675;-59
2023/03/11 12:12:49;;;;;;;4.47;2.03;;;;;;;;;;5055774;28;20209;-55
2023/03/11 12:15:27;;;;;;;3.03;1.87;;;;;;;;;;5056172;28;20207;-55
2023/03/11 12:17:57;;;;;;;3.93;2.00;;;;;;;;;;5055131;28;20525;-55
2023/03/11 12:20:26;;;;;;;2.93;1.83;;;;;;;;;;5057535;28;20629;-53
2023/03/11 12:23:05;;;;;;;2.30;1.67;;;;;;;;;;5062432;28;20184;-53
2023/03/11 12:25:34;;;;;;;3.90;2.07;;;;;;;;;;5055498;28;20184;-53
2023/03/11 12:28:05;;;;;;;6.63;2.10;;;;;;;;;;5059751;28;20495;-53
2023/03/11 12:30:37;;;;;;;1.87;1.60;;;;;;;;;;5052933;28;20181;-55
2023/03/11 12:33:04;;;;;;;2.60;1.80;;;;;;;;;;5080908;28;20329;-54
2023/03/11 12:35:32;;;;;;;2.77;2.00;;;;;;;;;;5082177;28;20277;-54
2023/03/11 12:38:16;;;;;;;2.40;1.67;;;;;;;;;;5077489;28;20180;-53
2023/03/11 12:40:42;;;;;;;4.67;1.97;;;;;;;;;;5087971;28;20175;-53
2023/03/11 12:43:32;;;;;;;3.10;1.70;;;;;;;;;;5087695;28;22291;-53
2023/03/11 12:45:58;;;;;;;2.43;1.53;;;;;;;;;;5084979;28;20192;-54
2023/03/11 12:48:27;;;;;;;2.50;1.47;;;;;;;;;;5087625;28;20677;-53
2023/03/11 12:50:53;;;;;;;1.60;1.10;;;;;;;;;;5087322;28;20191;-53
2023/03/11 12:53:20;;;;;;;2.40;1.70;;;;;;;;;;5082083;28;20206;-54
2023/03/11 12:56:00;;;;;;;3.27;1.90;;;;;;;;;;5062983;28;20215;-54
2023/03/11 12:58:37;;;;;;;1.43;1.33;;;;;;;;;;5081299;28;20192;-54
2023/03/11 13:01:14;;;;;;;2.30;1.73;;;;;;;;;;5084084;28;20520;-54
2023/03/11 13:03:44;;;;;;;1.83;1.60;;;;;;;;;;5079352;28;20510;-54
2023/03/11 13:06:21;;;;;;;2.03;1.80;;;;;;;;;;5081796;28;20222;-54
2023/03/11 13:08:49;;;;;;;2.50;2.00;;;;;;;;;;5081678;28;20411;-54
2023/03/11 13:11:33;;;;;;;4.83;2.00;;;;;;;;;;5082783;28;20218;-54
2023/03/11 13:14:17;;;;;;;2.93;1.90;;;;;;;;;;5079166;28;20209;-55
2023/03/11 13:16:44;;;;;;;2.00;1.67;;;;;;;;;;5078801;28;20185;-55
2023/03/11 13:19:25;;;;;;;1.67;1.57;;;;;;;;;;5080254;28;20316;-54
2023/03/11 13:21:52;;;;;;;1.87;1.73;;;;;;;;;;5085071;28;20271;-54
2023/03/11 13:24:18;;;;;;;2.97;1.60;;;;;;;;;;5073101;28;20172;-54
2023/03/11 13:27:03;;;;;;;2.30;1.70;;;;;;;;;;5084456;28;20207;-54
2023/03/11 13:29:44;;;;;;;1.60;1.50;;;;;;;;;;5071481;28;20197;-54
2023/03/11 13:32:29;;;;;;;1.87;1.33;;;;;;;;;;5081723;28;20654;-54
2023/03/11 13:34:58;;;;;;;2.40;2.10;;;;;;;;;;5067548;28;20663;-54
2023/03/11 13:37:42;;;;;;;1.83;1.67;;;;;;;;;;5072497;28;20188;-54
2023/03/11 13:40:12;;;;;;;1.90;1.43;;;;;;;;;;5086645;28;20499;-54
2023/03/11 13:42:45;;;;;;;3.43;1.97;;;;;;;;;;5082962;28;20203;-54
2023/03/11 13:45:30;;;;;;;1.73;1.63;;;;;;;;;;5077005;28;20183;-54
2023/03/11 13:47:58;;;;;;;2.47;1.93;;;;;;;;;;5086417;28;20222;-54
2023/03/11 13:50:28;;;;;;;4.77;2.07;;;;;;;;;;5086685;28;20604;-54
2023/03/11 13:52:54;;;;;;;2.33;2.10;;;;;;;;;;5088334;28;20568;-54
2023/03/11 13:55:21;;;;;;;1.70;1.60;;;;;;;;;;5081120;28;20192;-54
2023/03/11 13:57:52;;;;;;;3.83;2.07;;;;;;;;;;5082305;28;20181;-54
2023/03/11 14:00:22;;;;;;;2.63;2.00;;;;;;;;;;5083535;28;20665;-54
2023/03/11 14:02:56;;;;;;;2.10;1.80;;;;;;;;;;5086610;28;20233;-54
2023/03/11 14:05:42;;;;;;;2.00;1.80;;;;;;;;;;5070850;28;20559;-54
2023/03/11 14:08:12;;;;;;;2.20;1.83;;;;;;;;;;5068911;28;20302;-54
2023/03/11 14:10:41;;;;;;;2.43;1.70;;;;;;;;;;5084892;28;20642;-54
2023/03/11 14:13:15;;;;;;;2.20;2.00;;;;;;;;;;5082899;28;20562;-54
2023/03/11 14:16:04;;;;;;;2.63;2.10;;;;;;;;;;5075108;28;20249;-54
2023/03/11 14:18:35;;;;;;;2.37;2.17;;;;;;;;;;5069810;28;20586;-54
2023/03/11 14:21:03;;;;;;;2.37;1.90;;;;;;;;;;5085439;28;20225;-54
2023/03/11 14:23:33;;;;;;;2.27;1.73;;;;;;;;;;5076944;28;20183;-54
2023/03/11 14:26:01;;;;;;;2.43;2.00;;;;;;;;;;5086447;28;20247;-54
2023/03/11 14:28:29;;;;;;;1.70;1.60;;;;;;;;;;5084834;28;20320;-54
2023/03/11 14:30:56;;;;;;;3.33;2.00;;;;;;;;;;5085633;28;20194;-54
2023/03/11 14:33:23;;;;;;;2.70;2.03;;;;;;;;;;5077192;28;20227;-54
2023/03/11 14:35:56;;;;;;;2.70;2.07;;;;;;;;;;5087411;28;20545;-54
2023/03/11 14:38:23;;;;;;;2.60;2.10;;;;;;;;;;5087266;28;20619;-54
2023/03/11 14:40:56;;;;;;;2.70;1.80;;;;;;;;;;5084886;28;20191;-54
2023/03/11 14:43:22;;;;;;;2.40;2.20;;;;;;;;;;5084431;28;20206;-54
2023/03/11 14:45:50;;;;;;;2.33;1.97;;;;;;;;;;5083382;28;20555;-54
2023/03/11 14:48:31;;;;;;;3.67;2.40;;;;;;;;;;5090760;28;20233;-54
2023/03/11 14:50:59;;;;;;;2.83;2.20;;;;;;;;;;5081583;28;20187;-54